createdAt,value
2018-11-06T00:01:56.412Z,34.35
2018-11-06T00:04:29.218Z,33.48
2018-11-06T00:07:01.459Z,34.75
2018-11-06T00:09:29.029Z,33.35
2018-11-06T00:11:56.364Z,34.55
2018-11-06T00:14:23.699Z,32.10
2018-11-06T00:16:51.123Z,32.73
2018-11-06T00:19:18.735Z,34.70
2018-11-06T00:21:46.141Z,30.80
2018-11-06T00:24:13.676Z,32.17
2018-11-06T00:29:07.891Z,35.70
2018-11-06T00:31:35.250Z,31.80
2018-11-06T00:34:02.681Z,31.68
2018-11-06T00:36:30.691Z,30.82
2018-11-06T00:38:58.145Z,36.58
2018-11-06T00:41:25.918Z,35.35
2018-11-06T00:43:53.979Z,35.10
2018-11-06T00:46:22.030Z,32.78
2018-11-06T00:48:49.649Z,35.80
2018-11-06T00:51:17.773Z,35.70
2018-11-06T00:53:46.115Z,34.00
2018-11-06T00:56:17.854Z,31.20
2018-11-06T00:58:45.703Z,35.13
2018-11-06T01:01:13.305Z,36.93
2018-11-06T01:04:17.230Z,34.15
2018-11-06T01:06:44.624Z,30.35
2018-11-06T01:09:13.466Z,34.88
2018-11-06T01:11:42.623Z,33.33
2018-11-06T01:14:10.030Z,31.12
2018-11-06T01:16:37.482Z,30.62
2018-11-06T01:19:05.412Z,36.53
2018-11-06T01:21:32.918Z,31.07
2018-11-06T01:24:00.301Z,30.70
2018-11-06T01:26:28.390Z,33.50
2018-11-06T01:28:55.850Z,35.40
2018-11-06T01:31:23.594Z,30.43
2018-11-06T01:33:50.990Z,32.78
2018-11-06T01:36:18.506Z,34.25
2018-11-06T01:38:45.991Z,33.50
2018-11-06T01:41:13.374Z,33.23
2018-11-06T01:43:45.369Z,31.35
2018-11-06T01:46:12.744Z,30.77
2018-11-06T01:48:40.222Z,31.55
2018-11-06T01:51:07.782Z,33.65
2018-11-06T01:53:35.089Z,35.40
2018-11-06T01:56:02.477Z,31.65
2018-11-06T01:58:29.808Z,32.15
2018-11-06T02:00:57.195Z,32.28
2018-11-06T02:03:25.564Z,30.70
2018-11-06T02:05:53.063Z,30.62
2018-11-06T02:08:20.531Z,32.93
2018-11-06T02:10:47.851Z,31.65
2018-11-06T02:13:16.412Z,28.92
2018-11-06T02:15:43.854Z,29.50
2018-11-06T02:18:11.520Z,31.17
2018-11-06T02:20:39.071Z,33.35
2018-11-06T02:23:06.430Z,30.52
2018-11-06T02:25:33.934Z,31.23
2018-11-06T02:28:01.252Z,33.63
2018-11-06T02:30:28.870Z,30.88
2018-11-06T02:32:56.218Z,28.27
2018-11-06T02:35:23.724Z,30.27
2018-11-06T02:37:51.189Z,29.98
2018-11-06T02:40:18.767Z,27.90
2018-11-06T02:42:46.275Z,30.25
2018-11-06T02:45:15.081Z,29.23
2018-11-06T02:47:43.198Z,28.90
2018-11-06T02:50:12.228Z,30.95
2018-11-06T02:52:39.656Z,30.95
2018-11-06T02:55:07.275Z,31.17
2018-11-06T02:57:34.779Z,30.32
2018-11-06T03:00:02.343Z,31.80
2018-11-06T03:02:30.036Z,33.02
2018-11-06T03:04:57.504Z,31.82
2018-11-06T03:07:24.885Z,30.20
2018-11-06T03:09:52.226Z,29.82
2018-11-06T03:12:20.327Z,28.85
2018-11-06T03:14:47.748Z,33.25
2018-11-06T03:17:15.396Z,30.40
2018-11-06T03:19:43.827Z,29.55
2018-11-06T03:22:11.638Z,30.65
2018-11-06T03:24:39.714Z,29.50
2018-11-06T03:27:07.275Z,28.90
2018-11-06T03:29:34.598Z,29.27
2018-11-06T03:32:02.049Z,29.10
2018-11-06T03:34:29.576Z,28.17
2018-11-06T03:36:57.070Z,29.35
2018-11-06T03:39:24.562Z,28.12
2018-11-06T03:41:52.504Z,29.40
2018-11-06T03:44:24.174Z,29.12
2018-11-06T03:46:51.502Z,29.50
2018-11-06T03:49:19.000Z,27.87
2018-11-06T03:51:46.669Z,27.10
2018-11-06T03:54:14.014Z,27.55
2018-11-06T03:56:41.838Z,30.45
2018-11-06T03:59:09.371Z,27.93
2018-11-06T04:01:36.722Z,26.35
2018-11-06T04:04:04.172Z,26.70
2018-11-06T04:06:31.591Z,29.42
2018-11-06T04:08:58.910Z,28.25
2018-11-06T04:11:26.314Z,26.30
2018-11-06T04:13:54.447Z,25.90
2018-11-06T04:16:23.526Z,29.35
2018-11-06T04:18:51.070Z,29.07
2018-11-06T04:21:22.698Z,28.35
2018-11-06T04:23:50.175Z,29.02
2018-11-06T04:26:17.694Z,27.45
2018-11-06T04:28:45.711Z,23.80
2018-11-06T04:31:13.158Z,27.13
2018-11-06T04:33:41.179Z,27.98
2018-11-06T04:36:09.196Z,27.27
2018-11-06T04:38:36.972Z,28.80
2018-11-06T04:41:04.306Z,29.92
2018-11-06T04:43:31.642Z,26.68
2018-11-06T04:45:59.641Z,28.15
2018-11-06T04:48:27.663Z,26.73
2018-11-06T04:50:55.259Z,29.27
2018-11-06T04:53:23.639Z,27.02
2018-11-06T04:55:51.027Z,28.77
2018-11-06T04:58:18.432Z,27.45
2018-11-06T05:00:46.007Z,29.18
2018-11-06T05:03:13.419Z,29.80
2018-11-06T05:05:45.091Z,29.85
2018-11-06T05:08:12.638Z,28.85
2018-11-06T05:10:40.316Z,30.30
2018-11-06T05:13:07.736Z,35.58
2018-11-06T05:15:35.192Z,33.40
2018-11-06T05:18:02.620Z,33.95
2018-11-06T05:20:30.042Z,31.77
2018-11-06T05:22:57.385Z,32.03
2018-11-06T05:25:24.892Z,34.85
2018-11-06T05:27:52.189Z,31.80
2018-11-06T05:30:19.576Z,29.45
2018-11-06T05:32:46.981Z,31.93
2018-11-06T05:35:14.313Z,28.47
2018-11-06T05:37:42.018Z,29.63
2018-11-06T05:42:36.672Z,29.48
2018-11-06T05:45:04.634Z,33.15
2018-11-06T05:47:31.994Z,34.53
2018-11-06T05:49:59.446Z,37.08
2018-11-06T05:52:26.910Z,32.50
2018-11-06T05:54:54.258Z,37.83
2018-11-06T05:57:21.654Z,32.13
2018-11-06T05:59:48.991Z,37.17
2018-11-06T06:02:16.510Z,38.83
2018-11-06T06:04:44.663Z,36.38
2018-11-06T06:07:12.942Z,40.90
2018-11-06T06:09:40.449Z,34.35
2018-11-06T06:12:07.774Z,34.85
2018-11-06T06:14:36.135Z,30.72
2018-11-06T06:17:03.531Z,34.27
2018-11-06T06:19:30.879Z,37.05
2018-11-06T06:21:58.422Z,36.23
2018-11-06T06:24:26.115Z,32.20
2018-11-06T06:26:53.442Z,33.33
2018-11-06T06:29:20.809Z,29.37
2018-11-06T06:31:48.867Z,33.35
2018-11-06T06:34:16.183Z,31.80
2018-11-06T06:36:43.852Z,30.80
2018-11-06T06:39:11.381Z,32.60
2018-11-06T06:41:39.091Z,30.92
2018-11-06T06:44:07.103Z,35.52
2018-11-06T06:46:35.105Z,32.80
2018-11-06T06:49:02.714Z,33.83
2018-11-06T06:51:30.029Z,31.20
2018-11-06T06:53:57.470Z,33.38
2018-11-06T06:56:24.782Z,34.50
2018-11-06T06:58:52.250Z,30.40
2018-11-06T07:01:19.583Z,29.48
2018-11-06T07:03:46.896Z,30.08
2018-11-06T07:06:14.191Z,30.55
2018-11-06T07:08:41.564Z,28.85
2018-11-06T07:11:08.969Z,31.97
2018-11-06T07:13:37.002Z,32.80
2018-11-06T07:16:04.456Z,30.82
2018-11-06T07:18:31.773Z,30.20
2018-11-06T07:20:59.050Z,30.00
2018-11-06T07:23:26.362Z,29.02
2018-11-06T07:25:53.736Z,29.65
2018-11-06T07:28:21.119Z,31.17
2018-11-06T07:30:48.536Z,29.18
2018-11-06T07:33:15.850Z,30.57
2018-11-06T07:35:43.254Z,36.48
2018-11-06T07:38:10.446Z,37.80
2018-11-06T07:40:38.865Z,36.98
2018-11-06T07:43:06.091Z,33.50
2018-11-06T07:45:33.384Z,35.15
2018-11-06T07:48:00.701Z,34.18
2018-11-06T07:50:28.191Z,36.30
2018-11-06T07:52:55.389Z,34.43
2018-11-06T07:55:22.737Z,32.60
2018-11-06T07:57:50.059Z,37.98
2018-11-06T08:00:20.563Z,32.95
2018-11-06T08:02:48.490Z,32.10
2018-11-06T08:05:16.085Z,36.20
2018-11-06T08:07:44.206Z,33.95
2018-11-06T08:10:11.818Z,32.03
2018-11-06T08:12:41.358Z,32.23
2018-11-06T08:15:09.680Z,32.78
2018-11-06T08:17:37.104Z,34.05
2018-11-06T08:20:04.582Z,32.20
2018-11-06T08:22:31.904Z,33.70
2018-11-06T08:24:59.214Z,31.82
2018-11-06T08:27:26.500Z,38.40
2018-11-06T08:29:54.289Z,35.20
2018-11-06T08:32:22.061Z,30.55
2018-11-06T08:34:49.118Z,33.30
2018-11-06T08:37:16.438Z,30.30
2018-11-06T08:39:43.763Z,31.57
2018-11-06T08:42:11.208Z,30.17
2018-11-06T08:44:38.499Z,31.15
2018-11-06T08:47:05.843Z,29.90
2018-11-06T08:49:33.147Z,33.88
2018-11-06T08:52:00.465Z,29.82
2018-11-06T08:54:27.820Z,28.98
2018-11-06T08:56:55.904Z,33.70
2018-11-06T08:59:23.300Z,28.75
2018-11-06T09:01:50.568Z,28.40
2018-11-06T09:04:17.868Z,30.02
2018-11-06T09:06:45.163Z,28.47
2018-11-06T09:09:12.675Z,30.37
2018-11-06T09:11:40.010Z,27.85
2018-11-06T09:14:07.950Z,31.10
2018-11-06T09:16:35.387Z,28.25
2018-11-06T09:19:02.690Z,27.45
2018-11-06T09:21:30.342Z,28.90
2018-11-06T09:23:57.919Z,29.15
2018-11-06T09:26:25.213Z,30.50
2018-11-06T09:28:52.578Z,29.05
2018-11-06T09:31:20.050Z,25.75
2018-11-06T09:33:47.627Z,25.82
2018-11-06T09:36:14.958Z,28.12
2018-11-06T09:38:42.354Z,23.02
2018-11-06T09:41:09.663Z,28.95
2018-11-06T09:43:37.001Z,26.30
2018-11-06T09:46:04.354Z,24.75
2018-11-06T09:48:31.682Z,25.55
2018-11-06T09:50:59.054Z,27.95
2018-11-06T09:53:26.367Z,25.08
2018-11-06T09:55:53.667Z,30.00
2018-11-06T09:58:20.972Z,31.33
2018-11-06T10:00:48.280Z,28.27
2018-11-06T10:03:15.709Z,35.68
2018-11-06T10:05:43.758Z,27.37
2018-11-06T10:08:11.094Z,27.75
2018-11-06T10:10:38.391Z,27.75
2018-11-06T10:13:05.719Z,28.38
2018-11-06T10:15:33.022Z,28.83
2018-11-06T10:18:00.310Z,25.50
2018-11-06T10:20:27.629Z,25.55
2018-11-06T10:22:59.446Z,33.78
2018-11-06T10:25:26.812Z,30.05
2018-11-06T10:27:54.157Z,27.55
2018-11-06T10:30:21.563Z,30.32
2018-11-06T10:32:48.866Z,28.07
2018-11-06T10:35:16.430Z,27.52
2018-11-06T10:37:44.213Z,27.87
2018-11-06T10:40:13.668Z,27.35
2018-11-06T10:42:41.177Z,25.12
2018-11-06T10:45:09.736Z,27.77
2018-11-06T10:47:37.539Z,26.70
2018-11-06T10:50:06.226Z,24.75
2018-11-06T10:52:37.635Z,24.40
2018-11-06T10:55:05.914Z,22.77
2018-11-06T10:57:33.413Z,26.00
2018-11-06T11:00:00.803Z,24.35
2018-11-06T11:02:33.531Z,25.52
2018-11-06T11:05:01.099Z,26.15
2018-11-06T11:07:28.444Z,28.92
2018-11-06T11:09:55.816Z,28.47
2018-11-06T11:12:23.225Z,25.20
2018-11-06T11:14:50.549Z,26.25
2018-11-06T11:17:17.942Z,24.75
2018-11-06T11:19:45.951Z,25.23
2018-11-06T11:22:13.261Z,23.92
2018-11-06T11:24:40.619Z,26.85
2018-11-06T11:27:08.829Z,28.07
2018-11-06T11:29:36.903Z,26.65
2018-11-06T11:32:04.239Z,29.98
2018-11-06T11:34:31.584Z,26.20
2018-11-06T11:36:58.970Z,29.18
2018-11-06T11:39:26.336Z,28.45
2018-11-06T11:41:53.738Z,26.33
2018-11-06T11:44:21.033Z,24.85
2018-11-06T11:46:48.350Z,25.35
2018-11-06T11:49:15.703Z,27.10
2018-11-06T11:51:43.054Z,23.47
2018-11-06T11:54:10.362Z,24.27
2018-11-06T11:56:37.674Z,25.55
2018-11-06T11:59:05.122Z,24.85
2018-11-06T12:01:32.439Z,23.07
2018-11-06T12:04:04.870Z,22.93
2018-11-06T12:06:32.145Z,23.62
2018-11-06T12:08:59.499Z,25.10
2018-11-06T12:11:26.861Z,26.30
2018-11-06T12:13:58.902Z,25.72
2018-11-06T12:16:26.435Z,26.33
2018-11-06T12:18:53.833Z,23.38
2018-11-06T12:21:21.199Z,26.70
2018-11-06T12:23:48.656Z,25.20
2018-11-06T12:26:15.988Z,24.30
2018-11-06T12:28:43.359Z,22.10
2018-11-06T12:31:10.682Z,26.23
2018-11-06T12:33:37.991Z,24.67
2018-11-06T12:36:05.398Z,26.52
2018-11-06T12:38:32.732Z,24.63
2018-11-06T12:41:00.038Z,22.58
2018-11-06T12:43:27.425Z,23.90
2018-11-06T12:45:54.767Z,23.10
2018-11-06T12:48:22.129Z,22.32
2018-11-06T12:50:49.547Z,24.35
2018-11-06T12:53:17.151Z,24.15
2018-11-06T12:55:45.178Z,22.52
2018-11-06T12:58:12.578Z,19.87
2018-11-06T13:00:39.881Z,21.87
2018-11-06T13:03:07.284Z,20.62
2018-11-06T13:05:35.322Z,21.97
2018-11-06T13:08:03.146Z,20.15
2018-11-06T13:10:30.479Z,19.27
2018-11-06T13:12:57.787Z,18.23
2018-11-06T13:15:25.146Z,21.17
2018-11-06T13:17:53.674Z,19.17
2018-11-06T13:20:20.989Z,19.40
2018-11-06T13:22:48.389Z,19.95
2018-11-06T13:25:15.898Z,18.98
2018-11-06T13:27:43.624Z,19.07
2018-11-06T13:30:13.217Z,19.15
2018-11-06T13:32:41.331Z,19.07
2018-11-06T13:35:09.554Z,19.50
2018-11-06T13:37:37.009Z,22.32
2018-11-06T13:40:05.258Z,20.17
2018-11-06T13:42:33.072Z,20.97
2018-11-06T13:45:00.809Z,19.40
2018-11-06T13:47:27.968Z,18.70
2018-11-06T13:49:55.266Z,19.80
2018-11-06T13:52:22.784Z,20.92
2018-11-06T13:54:50.109Z,19.20
2018-11-06T13:57:17.506Z,19.75
2018-11-06T13:59:44.906Z,19.32
2018-11-06T14:02:12.315Z,20.55
2018-11-06T14:04:40.526Z,20.37
2018-11-06T14:07:07.827Z,22.35
2018-11-06T14:09:36.039Z,19.50
2018-11-06T14:12:03.359Z,18.90
2018-11-06T14:14:30.658Z,19.20
2018-11-06T14:16:58.660Z,20.95
2018-11-06T14:19:26.075Z,21.50
2018-11-06T14:21:53.479Z,19.35
2018-11-06T14:24:20.792Z,20.85
2018-11-06T14:26:48.201Z,24.12
2018-11-06T14:29:15.529Z,19.10
2018-11-06T14:31:43.015Z,22.25
2018-11-06T14:34:10.285Z,20.08
2018-11-06T14:36:37.694Z,22.20
2018-11-06T14:39:06.346Z,20.08
2018-11-06T14:41:33.645Z,20.85
2018-11-06T14:44:01.022Z,20.30
2018-11-06T14:46:28.485Z,20.32
2018-11-06T14:48:56.160Z,25.02
2018-11-06T14:51:23.650Z,22.13
2018-11-06T14:53:51.160Z,20.30
2018-11-06T14:56:18.522Z,20.55
2018-11-06T14:58:46.016Z,22.07
2018-11-06T15:01:13.289Z,22.32
2018-11-06T15:03:40.606Z,22.48
2018-11-06T15:06:07.987Z,20.10
2018-11-06T15:08:35.374Z,20.72
2018-11-06T15:11:02.778Z,21.33
2018-11-06T15:13:30.150Z,23.75
2018-11-06T15:15:57.426Z,22.15
2018-11-06T15:18:24.796Z,25.00
2018-11-06T15:20:52.167Z,23.80
2018-11-06T15:23:19.462Z,22.25
2018-11-06T15:25:46.744Z,23.20
2018-11-06T15:28:14.883Z,21.82
2018-11-06T15:30:42.246Z,28.38
2018-11-06T15:33:09.585Z,24.85
2018-11-06T15:35:36.902Z,25.80
2018-11-06T15:38:04.505Z,22.05
2018-11-06T15:40:31.782Z,21.87
2018-11-06T15:42:59.087Z,27.15
2018-11-06T15:45:26.894Z,23.38
2018-11-06T15:47:54.250Z,23.00
2018-11-06T15:50:21.842Z,22.93
2018-11-06T15:52:50.046Z,24.37
2018-11-06T15:55:17.427Z,22.75
2018-11-06T15:57:44.963Z,21.80
2018-11-06T16:00:14.675Z,20.92
2018-11-06T16:02:42.614Z,27.73
2018-11-06T16:05:10.057Z,23.25
2018-11-06T16:07:37.653Z,23.62
2018-11-06T16:10:06.516Z,21.70
2018-11-06T16:12:33.938Z,23.38
2018-11-06T16:15:01.337Z,27.00
2018-11-06T16:17:28.721Z,23.75
2018-11-06T16:19:56.034Z,22.55
2018-11-06T16:22:23.527Z,25.85
2018-11-06T16:24:50.930Z,24.80
2018-11-06T16:27:18.309Z,24.05
2018-11-06T16:29:45.731Z,24.90
2018-11-06T16:32:13.035Z,23.80
2018-11-06T16:34:40.356Z,24.40
2018-11-06T16:37:07.809Z,27.62
2018-11-06T16:39:35.243Z,25.43
2018-11-06T16:42:02.585Z,27.10
2018-11-06T16:44:29.995Z,24.37
2018-11-06T16:46:57.383Z,28.95
2018-11-06T16:49:24.730Z,23.07
2018-11-06T16:51:52.094Z,24.70
2018-11-06T16:54:19.439Z,33.53
2018-11-06T16:56:50.898Z,25.52
2018-11-06T16:59:18.277Z,31.52
2018-11-06T17:01:45.650Z,29.35
2018-11-06T17:04:13.914Z,26.20
2018-11-06T17:06:47.204Z,30.85
2018-11-06T17:09:14.650Z,30.20
2018-11-06T17:11:41.972Z,27.02
2018-11-06T17:14:09.329Z,29.80
2018-11-06T17:16:37.030Z,27.48
2018-11-06T17:19:05.048Z,29.55
2018-11-06T17:21:32.451Z,26.68
2018-11-06T17:23:59.897Z,28.98
2018-11-06T17:26:27.926Z,27.60
2018-11-06T17:28:55.273Z,26.17
2018-11-06T17:31:22.801Z,27.42
2018-11-06T17:33:50.200Z,29.18
2018-11-06T17:36:18.415Z,25.40
2018-11-06T17:38:45.850Z,26.70
2018-11-06T17:41:13.430Z,25.85
2018-11-06T17:43:40.944Z,26.75
2018-11-06T17:46:08.596Z,25.40
2018-11-06T17:48:36.267Z,27.27
2018-11-06T17:51:03.680Z,29.25
2018-11-06T17:53:31.120Z,28.30
2018-11-06T17:58:25.445Z,28.07
2018-11-06T18:00:53.007Z,28.73
2018-11-06T18:03:20.344Z,29.77
2018-11-06T18:05:47.795Z,28.20
2018-11-06T18:08:16.768Z,29.05
2018-11-06T18:10:44.354Z,29.10
2018-11-06T18:13:11.726Z,28.07
2018-11-06T18:15:39.190Z,28.70
2018-11-06T18:18:06.686Z,28.05
2018-11-06T18:20:34.014Z,28.60
2018-11-06T18:23:02.070Z,29.90
2018-11-06T18:25:29.779Z,25.27
2018-11-06T18:27:57.148Z,26.48
2018-11-06T18:30:24.663Z,25.80
2018-11-06T18:33:00.409Z,29.82
2018-11-06T18:35:28.256Z,27.48
2018-11-06T18:37:55.629Z,24.75
2018-11-06T18:40:23.026Z,26.62
2018-11-06T18:42:51.085Z,27.05
2018-11-06T18:45:19.233Z,24.67
2018-11-06T18:47:47.802Z,28.67
2018-11-06T18:50:16.433Z,25.48
2018-11-06T18:52:45.361Z,30.55
2018-11-06T18:55:12.768Z,27.62
2018-11-06T18:57:40.179Z,26.65
2018-11-06T19:13:11.458Z,27.05
2018-11-06T19:15:38.863Z,26.50
2018-11-06T19:18:06.239Z,25.60
2018-11-06T19:20:33.698Z,30.97
2018-11-06T19:23:01.208Z,28.57
2018-11-06T19:25:28.681Z,26.12
2018-11-06T19:27:56.068Z,27.02
2018-11-06T19:30:23.547Z,30.25
2018-11-06T19:32:50.925Z,28.38
2018-11-06T19:35:18.379Z,27.55
2018-11-06T19:37:45.808Z,30.37
2018-11-06T19:40:15.404Z,29.07
2018-11-06T19:42:43.691Z,24.80
2018-11-06T19:45:11.684Z,28.45
2018-11-06T19:47:39.165Z,25.10
2018-11-06T19:50:08.348Z,26.87
2018-11-06T19:52:35.728Z,30.30
2018-11-06T19:55:03.167Z,28.60
2018-11-06T19:57:30.842Z,28.98
2018-11-06T19:59:58.431Z,30.00
2018-11-06T20:02:25.815Z,30.80
2018-11-06T20:04:53.234Z,30.02
2018-11-06T20:07:20.698Z,30.23
2018-11-06T20:09:48.132Z,32.93
2018-11-06T20:12:15.551Z,29.35
2018-11-06T20:14:42.977Z,31.02
2018-11-06T20:17:10.497Z,28.38
2018-11-06T20:19:37.901Z,31.10
2018-11-06T20:22:05.316Z,28.90
2018-11-06T20:24:32.668Z,26.80
2018-11-06T20:27:00.726Z,26.12
2018-11-06T20:29:28.183Z,29.80
2018-11-06T20:31:56.284Z,27.40
2018-11-06T20:34:24.630Z,28.25
2018-11-06T20:36:52.399Z,25.25
2018-11-06T20:39:19.868Z,27.98
2018-11-06T20:41:47.359Z,28.65
2018-11-06T20:44:14.922Z,28.67
2018-11-06T20:46:42.484Z,26.25
2018-11-06T20:49:09.874Z,27.42
2018-11-06T20:51:37.372Z,27.73
2018-11-06T20:54:05.178Z,26.10
2018-11-06T20:56:32.710Z,26.62
2018-11-06T20:59:00.111Z,26.52
2018-11-06T21:01:27.487Z,29.05
2018-11-06T21:03:55.106Z,26.37
2018-11-06T21:06:22.461Z,27.07
2018-11-06T21:08:50.339Z,26.73
2018-11-06T21:11:17.868Z,27.05
2018-11-06T21:13:45.318Z,26.23
2018-11-06T21:16:12.657Z,25.37
2018-11-06T21:18:40.488Z,23.55
2018-11-06T21:21:07.948Z,24.25
2018-11-06T21:23:35.290Z,25.62
2018-11-06T21:26:02.853Z,25.12
2018-11-06T21:28:30.099Z,27.73
2018-11-06T21:30:57.916Z,28.32
2018-11-06T21:33:26.045Z,32.78
2018-11-06T21:35:53.439Z,30.88
2018-11-06T21:38:25.126Z,31.30
2018-11-06T21:40:52.582Z,30.80
2018-11-06T21:43:19.935Z,27.27
2018-11-06T21:45:47.319Z,28.55
2018-11-06T21:48:14.721Z,28.50
2018-11-06T21:50:42.125Z,28.40
2018-11-06T21:53:09.511Z,28.60
2018-11-06T21:55:36.923Z,26.77
2018-11-06T21:58:05.510Z,28.85
2018-11-06T22:00:33.716Z,28.02
2018-11-06T22:03:01.556Z,26.70
2018-11-06T22:05:29.917Z,25.92
2018-11-06T22:07:57.530Z,25.23
2018-11-06T22:10:24.934Z,29.27
2018-11-06T22:12:52.536Z,26.70
2018-11-06T22:15:20.248Z,26.33
2018-11-06T22:17:47.661Z,26.55
2018-11-06T22:20:17.333Z,28.35
2018-11-06T22:22:45.336Z,26.48
2018-11-06T22:25:13.552Z,25.43
2018-11-06T22:27:41.505Z,25.52
2018-11-06T22:30:10.723Z,26.57
2018-11-06T22:32:38.202Z,26.02
2018-11-06T22:35:06.219Z,29.35
2018-11-06T22:37:33.594Z,27.25
2018-11-06T22:40:01.114Z,27.27
2018-11-06T22:42:28.542Z,26.48
2018-11-06T22:44:55.952Z,25.45
2018-11-06T22:47:23.390Z,29.80
2018-11-06T22:49:50.766Z,30.43
2018-11-06T22:52:18.176Z,28.50
2018-11-06T22:54:45.584Z,24.45
2018-11-06T22:57:13.117Z,26.20
2018-11-06T22:59:40.506Z,29.15
2018-11-06T23:02:07.936Z,29.15
2018-11-06T23:04:36.087Z,28.17
2018-11-06T23:07:04.770Z,30.60
2018-11-06T23:09:31.981Z,28.40
2018-11-06T23:11:59.938Z,27.10
2018-11-06T23:14:27.317Z,29.52
2018-11-06T23:16:54.960Z,27.87
2018-11-06T23:19:22.367Z,26.00
2018-11-06T23:21:50.047Z,29.18
2018-11-06T23:24:17.454Z,28.05
2018-11-06T23:26:44.820Z,29.98
2018-11-06T23:29:12.585Z,26.40
2018-11-06T23:31:40.080Z,29.12
2018-11-06T23:34:07.630Z,26.52
2018-11-06T23:36:35.012Z,26.93
2018-11-06T23:39:02.373Z,27.05
2018-11-06T23:41:29.943Z,29.50
2018-11-06T23:43:57.281Z,26.87
2018-11-06T23:46:24.565Z,28.40
2018-11-06T23:48:51.917Z,28.67
2018-11-06T23:51:19.351Z,26.25
2018-11-06T23:53:46.807Z,25.82
